• Join FlightAware (Why Join?)
  • Login
  • US Flag 
03:53PM EST


 

Airport Tracker/Info


-or-


 

Live Flight TrackerFlight Track Log ✈ THA47 ✈ 09-May-2013 ✈ VTUK / KKC - VTBS / BKK

Flight Track Log - Related Links

Times and Time Zones

All times are in EDT time to prevent confusion due to time zone crossing. See the THA47 flight status page for this flight to view local times or setup timezone preferences in your user account.

Time Position Orientation Groundspeed Altitude Reporting Facility
EDT Latitude Longitude Course Direction KTS MPH feet Rate Location/Type
09:28AM 16.0323 102.4616 215° Southwest  Level Estimated
09:29AM 15.9454 102.3974 215° Southwest  Level Estimated
09:30AM 15.8584 102.3332 215° Southwest  Level Estimated
09:31AM 15.7715 102.2691 215° Southwest  Level Estimated
09:32AM 15.6845 102.2050 215° Southwest  Level Estimated
09:33AM 15.5975 102.1410 215° Southwest  Level Estimated
09:34AM 15.5105 102.0771 215° Southwest  Level Estimated
09:35AM 15.4234 102.0132 215° Southwest  Level Estimated
09:36AM 15.3364 101.9493 215° Southwest  Level Estimated
09:37AM 15.2493 101.8855 215° Southwest  Level Estimated
09:38AM 15.1622 101.8217 215° Southwest  Level Estimated
09:39AM 15.0751 101.7581 215° Southwest  Level Estimated
09:40AM 14.9880 101.6944 215° Southwest  Level Estimated
09:41AM 14.9009 101.6308 215° Southwest  Level Estimated
09:42AM 14.8137 101.5673 215° Southwest  Level Estimated
09:43AM 14.7265 101.5038 215° Southwest  Level Estimated
09:44AM 14.6393 101.4404 215° Southwest  Level Estimated
09:45AM 14.5521 101.3770 215° Southwest  Level Estimated
09:46AM 14.4649 101.3136 215° Southwest  Level Estimated
09:47AM 14.3776 101.2503 215° Southwest  Level Estimated
09:48AM 14.2904 101.1871 215° Southwest  Level Estimated
09:49AM 14.2031 101.1239 215° Southwest  Level Estimated
09:50AM 14.1158 101.0608 215° Southwest  Level Estimated
09:51AM 14.0285 100.9977 215° Southwest  Level Estimated
09:52AM 13.9411 100.9346 215° Southwest  Level Estimated
09:53AM 13.8538 100.8716 215° Southwest  Level Estimated
09:54AM 13.7664 100.8087 215° Southwest  Level Estimated
09:55AM 13.6811 100.7473 215° Southwest  Level Estimated
09:56AM 13.6811 100.7473 124° Southeast  Level Estimated
09:57AM 13.6811 100.7473 124° Southeast  Level Estimated
09:58AM 13.6811 100.7473 124° Southeast  Level Estimated
09:59AM 13.6811 100.7473 124° Southeast  Level Estimated
10:00AM 13.6811 100.7473 124° Southeast  Level Estimated
10:01AM 13.6811 100.7473 124° Southeast  Level Estimated
10:02AM 13.6811 100.7473 124° Southeast  Level Estimated
10:03AM 13.6811 100.7473 124° Southeast  Level Estimated
10:04AM 13.6811 100.7473 124° Southeast  Level Estimated
10:05AM 13.6811 100.7473 124° Southeast  Level Estimated
10:06AM 13.6811 100.7473 124° Southeast  Level Estimated
10:07AM 13.6811 100.7473 124° Southeast  Level Estimated
10:08AM 13.6811 100.7473 124° Southeast  Level Estimated
10:09AM 13.6811 100.7473 124° Southeast  Level Estimated
10:10AM 13.6811 100.7473 124° Southeast  Level Estimated
10:11AM 13.6811 100.7473 124° Southeast  Level Estimated